sensor_id;sensor_type;location;lat;lon;timestamp;temperature;humidity
19037;DHT22;9651;49.138;8.900;2023-04-19T00:00:29;10.40;99.90
19037;DHT22;9651;49.138;8.900;2023-04-19T00:04:32;10.40;99.90
19037;DHT22;9651;49.138;8.900;2023-04-19T00:08:35;10.40;99.90
19037;DHT22;9651;49.138;8.900;2023-04-19T00:12:37;10.40;99.90
19037;DHT22;9651;49.138;8.900;2023-04-19T00:16:39;10.40;99.90
19037;DHT22;9651;49.138;8.900;2023-04-19T00:20:41;10.30;99.90
19037;DHT22;9651;49.138;8.900;2023-04-19T00:24:45;10.30;99.90
19037;DHT22;9651;49.138;8.900;2023-04-19T00:28:47;10.30;99.90
19037;DHT22;9651;49.138;8.900;2023-04-19T00:32:49;10.30;99.90
19037;DHT22;9651;49.138;8.900;2023-04-19T00:36:51;10.30;99.90
19037;DHT22;9651;49.138;8.900;2023-04-19T00:40:54;10.20;99.90
19037;DHT22;9651;49.138;8.900;2023-04-19T00:44:56;10.10;99.90
19037;DHT22;9651;49.138;8.900;2023-04-19T00:48:58;10.00;99.90
19037;DHT22;9651;49.138;8.900;2023-04-19T00:53:01;10.00;99.90
19037;DHT22;9651;49.138;8.900;2023-04-19T00:57:05;10.00;99.90
19037;DHT22;9651;49.138;8.900;2023-04-19T01:01:07;10.00;99.90
19037;DHT22;9651;49.138;8.900;2023-04-19T01:05:09;10.00;99.90
19037;DHT22;9651;49.138;8.900;2023-04-19T01:09:13;10.00;99.90
19037;DHT22;9651;49.138;8.900;2023-04-19T01:13:17;10.10;99.90
19037;DHT22;9651;49.138;8.900;2023-04-19T01:17:18;10.10;99.90
19037;DHT22;9651;49.138;8.900;2023-04-19T01:21:21;10.10;99.90
19037;DHT22;9651;49.138;8.900;2023-04-19T01:25:24;10.20;99.90
19037;DHT22;9651;49.138;8.900;2023-04-19T01:29:26;10.00;99.90
19037;DHT22;9651;49.138;8.900;2023-04-19T01:33:28;10.00;99.90
19037;DHT22;9651;49.138;8.900;2023-04-19T01:37:34;10.00;99.90
19037;DHT22;9651;49.138;8.900;2023-04-19T01:41:37;9.90;99.90
19037;DHT22;9651;49.138;8.900;2023-04-19T01:45:39;10.00;99.90
19037;DHT22;9651;49.138;8.900;2023-04-19T01:49:41;10.00;99.90
19037;DHT22;9651;49.138;8.900;2023-04-19T01:53:43;10.00;99.90
19037;DHT22;9651;49.138;8.900;2023-04-19T01:57:46;9.90;99.90
19037;DHT22;9651;49.138;8.900;2023-04-19T02:01:48;9.90;99.90
19037;DHT22;9651;49.138;8.900;2023-04-19T02:05:51;10.00;99.90
19037;DHT22;9651;49.138;8.900;2023-04-19T02:09:56;10.00;99.90
19037;DHT22;9651;49.138;8.900;2023-04-19T02:14:00;10.00;99.90
19037;DHT22;9651;49.138;8.900;2023-04-19T02:18:02;10.00;99.90
19037;DHT22;9651;49.138;8.900;2023-04-19T02:22:06;10.00;99.90
19037;DHT22;9651;49.138;8.900;2023-04-19T02:26:08;10.00;99.90
19037;DHT22;9651;49.138;8.900;2023-04-19T02:30:12;9.90;99.90
19037;DHT22;9651;49.138;8.900;2023-04-19T02:34:14;9.90;99.90
19037;DHT22;9651;49.138;8.900;2023-04-19T02:38:15;10.00;99.90
19037;DHT22;9651;49.138;8.900;2023-04-19T02:42:17;9.90;99.90
19037;DHT22;9651;49.138;8.900;2023-04-19T02:46:21;9.90;99.90
19037;DHT22;9651;49.138;8.900;2023-04-19T02:50:23;10.00;99.90
19037;DHT22;9651;49.138;8.900;2023-04-19T02:54:25;9.90;99.90
19037;DHT22;9651;49.138;8.900;2023-04-19T02:58:27;9.90;99.90
19037;DHT22;9651;49.138;8.900;2023-04-19T03:02:36;9.90;99.90
19037;DHT22;9651;49.138;8.900;2023-04-19T03:06:40;9.90;99.90
19037;DHT22;9651;49.138;8.900;2023-04-19T03:10:44;9.80;99.90
19037;DHT22;9651;49.138;8.900;2023-04-19T03:14:46;9.90;99.90
19037;DHT22;9651;49.138;8.900;2023-04-19T03:18:50;9.90;99.90
19037;DHT22;9651;49.138;8.900;2023-04-19T03:23:10;9.80;99.90
19037;DHT22;9651;49.138;8.900;2023-04-19T03:27:12;9.80;99.90
19037;DHT22;9651;49.138;8.900;2023-04-19T03:31:16;9.80;99.90
19037;DHT22;9651;49.138;8.900;2023-04-19T03:35:23;9.80;99.90
19037;DHT22;9651;49.138;8.900;2023-04-19T03:39:28;9.80;99.90
19037;DHT22;9651;49.138;8.900;2023-04-19T03:43:34;9.80;99.90
19037;DHT22;9651;49.138;8.900;2023-04-19T03:47:36;9.80;99.90
19037;DHT22;9651;49.138;8.900;2023-04-19T03:51:41;9.80;99.90
19037;DHT22;9651;49.138;8.900;2023-04-19T03:55:42;9.80;99.90
19037;DHT22;9651;49.138;8.900;2023-04-19T03:59:45;9.70;99.90
19037;DHT22;9651;49.138;8.900;2023-04-19T04:03:47;9.60;99.90
19037;DHT22;9651;49.138;8.900;2023-04-19T04:07:50;9.60;99.90
19037;DHT22;9651;49.138;8.900;2023-04-19T04:11:53;9.50;99.90
19037;DHT22;9651;49.138;8.900;2023-04-19T04:15:55;9.50;99.90
19037;DHT22;9651;49.138;8.900;2023-04-19T04:19:57;9.50;99.90
19037;DHT22;9651;49.138;8.900;2023-04-19T04:24:04;9.40;99.90
19037;DHT22;9651;49.138;8.900;2023-04-19T04:28:28;9.40;99.90
19037;DHT22;9651;49.138;8.900;2023-04-19T04:32:31;9.30;99.90
19037;DHT22;9651;49.138;8.900;2023-04-19T04:36:35;9.30;99.90
19037;DHT22;9651;49.138;8.900;2023-04-19T04:40:38;9.20;99.90
19037;DHT22;9651;49.138;8.900;2023-04-19T04:44:42;9.10;99.90
19037;DHT22;9651;49.138;8.900;2023-04-19T04:48:45;9.10;99.90
19037;DHT22;9651;49.138;8.900;2023-04-19T04:52:46;9.00;99.90
19037;DHT22;9651;49.138;8.900;2023-04-19T04:56:59;9.00;99.90
19037;DHT22;9651;49.138;8.900;2023-04-19T05:01:02;9.00;99.90
19037;DHT22;9651;49.138;8.900;2023-04-19T05:05:08;9.10;99.90
19037;DHT22;9651;49.138;8.900;2023-04-19T05:09:10;9.20;99.90
19037;DHT22;9651;49.138;8.900;2023-04-19T05:13:17;9.30;99.90
19037;DHT22;9651;49.138;8.900;2023-04-19T05:17:19;9.40;99.90
19037;DHT22;9651;49.138;8.900;2023-04-19T05:21:21;9.50;99.90
19037;DHT22;9651;49.138;8.900;2023-04-19T05:25:23;9.70;99.90
19037;DHT22;9651;49.138;8.900;2023-04-19T05:29:26;9.90;99.90
19037;DHT22;9651;49.138;8.900;2023-04-19T05:33:29;10.10;99.90
19037;DHT22;9651;49.138;8.900;2023-04-19T05:37:32;10.40;99.90
19037;DHT22;9651;49.138;8.900;2023-04-19T05:41:34;10.70;99.90
19037;DHT22;9651;49.138;8.900;2023-04-19T05:45:37;10.90;99.90
19037;DHT22;9651;49.138;8.900;2023-04-19T05:49:39;11.20;99.90
19037;DHT22;9651;49.138;8.900;2023-04-19T05:54:04;11.40;99.90
19037;DHT22;9651;49.138;8.900;2023-04-19T05:58:06;11.60;99.90
19037;DHT22;9651;49.138;8.900;2023-04-19T06:02:09;11.80;99.90
19037;DHT22;9651;49.138;8.900;2023-04-19T06:06:11;12.20;99.90
19037;DHT22;9651;49.138;8.900;2023-04-19T06:10:14;12.40;99.90
19037;DHT22;9651;49.138;8.900;2023-04-19T06:14:16;12.70;99.90
19037;DHT22;9651;49.138;8.900;2023-04-19T06:18:20;12.60;99.90
19037;DHT22;9651;49.138;8.900;2023-04-19T06:22:22;12.30;99.90
19037;DHT22;9651;49.138;8.900;2023-04-19T06:26:24;12.20;99.90
19037;DHT22;9651;49.138;8.900;2023-04-19T06:30:25;12.50;99.90
19037;DHT22;9651;49.138;8.900;2023-04-19T06:34:29;12.60;99.90
19037;DHT22;9651;49.138;8.900;2023-04-19T06:38:31;13.00;99.90
19037;DHT22;9651;49.138;8.900;2023-04-19T06:42:33;13.10;99.90
19037;DHT22;9651;49.138;8.900;2023-04-19T06:46:34;13.50;99.90
19037;DHT22;9651;49.138;8.900;2023-04-19T06:50:38;13.80;99.90
19037;DHT22;9651;49.138;8.900;2023-04-19T06:54:39;14.20;99.90
19037;DHT22;9651;49.138;8.900;2023-04-19T06:58:41;14.70;99.90
19037;DHT22;9651;49.138;8.900;2023-04-19T07:02:43;14.50;99.90
19037;DHT22;9651;49.138;8.900;2023-04-19T07:06:49;14.10;99.90
19037;DHT22;9651;49.138;8.900;2023-04-19T07:10:50;14.20;99.90
19037;DHT22;9651;49.138;8.900;2023-04-19T07:14:53;14.10;99.90
19037;DHT22;9651;49.138;8.900;2023-04-19T07:18:57;14.00;99.90
19037;DHT22;9651;49.138;8.900;2023-04-19T07:23:00;13.90;99.90
19037;DHT22;9651;49.138;8.900;2023-04-19T07:27:02;13.80;99.90
19037;DHT22;9651;49.138;8.900;2023-04-19T07:31:04;14.70;99.90
19037;DHT22;9651;49.138;8.900;2023-04-19T07:35:06;15.60;99.90
19037;DHT22;9651;49.138;8.900;2023-04-19T07:39:09;16.30;99.90
19037;DHT22;9651;49.138;8.900;2023-04-19T07:43:12;16.40;99.90
19037;DHT22;9651;49.138;8.900;2023-04-19T07:47:14;16.50;99.90
19037;DHT22;9651;49.138;8.900;2023-04-19T07:51:17;16.60;99.90
19037;DHT22;9651;49.138;8.900;2023-04-19T07:55:20;16.30;99.90
19037;DHT22;9651;49.138;8.900;2023-04-19T07:59:22;15.30;99.90
19037;DHT22;9651;49.138;8.900;2023-04-19T08:03:24;14.90;99.90
19037;DHT22;9651;49.138;8.900;2023-04-19T08:07:26;14.40;99.90
19037;DHT22;9651;49.138;8.900;2023-04-19T08:11:29;14.00;99.90
19037;DHT22;9651;49.138;8.900;2023-04-19T08:15:32;14.10;99.90
19037;DHT22;9651;49.138;8.900;2023-04-19T08:19:34;13.70;99.90
19037;DHT22;9651;49.138;8.900;2023-04-19T08:23:36;13.80;99.90
19037;DHT22;9651;49.138;8.900;2023-04-19T08:27:39;14.20;99.90
19037;DHT22;9651;49.138;8.900;2023-04-19T08:31:42;14.40;99.90
19037;DHT22;9651;49.138;8.900;2023-04-19T08:35:45;15.00;99.90
19037;DHT22;9651;49.138;8.900;2023-04-19T08:39:47;16.30;99.90
19037;DHT22;9651;49.138;8.900;2023-04-19T08:43:51;16.30;99.90
19037;DHT22;9651;49.138;8.900;2023-04-19T08:47:55;16.20;99.90
19037;DHT22;9651;49.138;8.900;2023-04-19T08:51:57;15.70;99.90
19037;DHT22;9651;49.138;8.900;2023-04-19T08:56:00;15.10;99.90
19037;DHT22;9651;49.138;8.900;2023-04-19T09:00:05;14.30;99.90
19037;DHT22;9651;49.138;8.900;2023-04-19T09:04:08;13.90;99.90
19037;DHT22;9651;49.138;8.900;2023-04-19T09:08:20;14.10;99.90
19037;DHT22;9651;49.138;8.900;2023-04-19T09:12:22;14.90;99.90
19037;DHT22;9651;49.138;8.900;2023-04-19T09:16:28;15.80;99.90
19037;DHT22;9651;49.138;8.900;2023-04-19T09:20:35;17.10;99.90
19037;DHT22;9651;49.138;8.900;2023-04-19T09:24:37;18.10;99.90
19037;DHT22;9651;49.138;8.900;2023-04-19T09:28:39;18.00;99.90
19037;DHT22;9651;49.138;8.900;2023-04-19T09:32:47;17.50;99.90
19037;DHT22;9651;49.138;8.900;2023-04-19T09:36:49;17.10;99.90
19037;DHT22;9651;49.138;8.900;2023-04-19T09:40:51;17.00;99.90
19037;DHT22;9651;49.138;8.900;2023-04-19T09:44:56;16.90;99.90
19037;DHT22;9651;49.138;8.900;2023-04-19T09:49:18;16.70;99.90
19037;DHT22;9651;49.138;8.900;2023-04-19T09:53:21;16.20;99.90
19037;DHT22;9651;49.138;8.900;2023-04-19T09:57:23;16.10;99.90
19037;DHT22;9651;49.138;8.900;2023-04-19T10:01:26;16.00;99.90
19037;DHT22;9651;49.138;8.900;2023-04-19T10:05:30;15.90;99.90
19037;DHT22;9651;49.138;8.900;2023-04-19T10:09:34;15.80;99.90
19037;DHT22;9651;49.138;8.900;2023-04-19T10:13:36;15.60;99.90
19037;DHT22;9651;49.138;8.900;2023-04-19T10:17:39;15.40;99.90
19037;DHT22;9651;49.138;8.900;2023-04-19T10:21:42;15.50;99.90
19037;DHT22;9651;49.138;8.900;2023-04-19T10:25:46;15.50;99.90
19037;DHT22;9651;49.138;8.900;2023-04-19T10:29:59;15.30;99.90
19037;DHT22;9651;49.138;8.900;2023-04-19T10:34:05;14.90;99.90
19037;DHT22;9651;49.138;8.900;2023-04-19T10:38:13;14.80;99.90
19037;DHT22;9651;49.138;8.900;2023-04-19T10:42:16;14.80;99.90
19037;DHT22;9651;49.138;8.900;2023-04-19T10:46:36;14.70;99.90
19037;DHT22;9651;49.138;8.900;2023-04-19T10:50:58;14.60;99.90
19037;DHT22;9651;49.138;8.900;2023-04-19T10:55:03;14.50;99.90
19037;DHT22;9651;49.138;8.900;2023-04-19T10:59:13;14.40;99.90
19037;DHT22;9651;49.138;8.900;2023-04-19T11:03:51;14.30;99.90
19037;DHT22;9651;49.138;8.900;2023-04-19T11:07:53;14.20;99.90
19037;DHT22;9651;49.138;8.900;2023-04-19T11:12:00;14.00;99.90
19037;DHT22;9651;49.138;8.900;2023-04-19T11:16:06;13.90;99.90
19037;DHT22;9651;49.138;8.900;2023-04-19T11:20:09;13.90;99.90
19037;DHT22;9651;49.138;8.900;2023-04-19T11:24:11;13.90;99.90
19037;DHT22;9651;49.138;8.900;2023-04-19T11:28:17;13.70;99.90
19037;DHT22;9651;49.138;8.900;2023-04-19T11:32:21;13.40;99.90
19037;DHT22;9651;49.138;8.900;2023-04-19T11:36:23;13.30;99.90
19037;DHT22;9651;49.138;8.900;2023-04-19T11:40:25;13.30;99.90
19037;DHT22;9651;49.138;8.900;2023-04-19T11:44:28;13.20;99.90
19037;DHT22;9651;49.138;8.900;2023-04-19T11:48:34;13.00;99.90
19037;DHT22;9651;49.138;8.900;2023-04-19T11:52:36;12.80;99.90
19037;DHT22;9651;49.138;8.900;2023-04-19T11:56:56;12.70;99.90
19037;DHT22;9651;49.138;8.900;2023-04-19T12:01:04;12.80;99.90
19037;DHT22;9651;49.138;8.900;2023-04-19T12:05:08;12.70;99.90
19037;DHT22;9651;49.138;8.900;2023-04-19T12:09:10;12.80;99.90
19037;DHT22;9651;49.138;8.900;2023-04-19T12:13:17;12.70;99.90
19037;DHT22;9651;49.138;8.900;2023-04-19T12:17:21;12.70;99.90
19037;DHT22;9651;49.138;8.900;2023-04-19T12:21:24;12.80;99.90
19037;DHT22;9651;49.138;8.900;2023-04-19T12:25:27;12.90;99.90
19037;DHT22;9651;49.138;8.900;2023-04-19T12:29:29;12.80;99.90
19037;DHT22;9651;49.138;8.900;2023-04-19T12:33:32;12.80;99.90
19037;DHT22;9651;49.138;8.900;2023-04-19T12:37:34;12.80;99.90
19037;DHT22;9651;49.138;8.900;2023-04-19T12:41:36;12.70;99.90
19037;DHT22;9651;49.138;8.900;2023-04-19T12:45:38;12.60;99.90
19037;DHT22;9651;49.138;8.900;2023-04-19T12:49:41;12.70;99.90
19037;DHT22;9651;49.138;8.900;2023-04-19T12:53:46;12.90;99.90
19037;DHT22;9651;49.138;8.900;2023-04-19T12:57:48;12.90;99.90
19037;DHT22;9651;49.138;8.900;2023-04-19T13:01:51;13.10;99.90
19037;DHT22;9651;49.138;8.900;2023-04-19T13:05:54;13.30;99.90
19037;DHT22;9651;49.138;8.900;2023-04-19T13:09:56;13.40;99.90
19037;DHT22;9651;49.138;8.900;2023-04-19T13:13:58;13.40;99.90
19037;DHT22;9651;49.138;8.900;2023-04-19T13:17:59;13.50;99.90
19037;DHT22;9651;49.138;8.900;2023-04-19T13:22:03;13.50;99.90
19037;DHT22;9651;49.138;8.900;2023-04-19T13:26:05;13.40;99.90
19037;DHT22;9651;49.138;8.900;2023-04-19T13:30:08;13.40;99.90
19037;DHT22;9651;49.138;8.900;2023-04-19T13:34:10;13.50;99.90
19037;DHT22;9651;49.138;8.900;2023-04-19T13:38:13;13.60;99.90
19037;DHT22;9651;49.138;8.900;2023-04-19T13:42:15;13.60;99.90
19037;DHT22;9651;49.138;8.900;2023-04-19T13:46:17;13.80;99.90
19037;DHT22;9651;49.138;8.900;2023-04-19T13:50:19;14.70;99.90
19037;DHT22;9651;49.138;8.900;2023-04-19T13:54:22;15.90;99.90
19037;DHT22;9651;49.138;8.900;2023-04-19T13:58:24;16.30;99.90
19037;DHT22;9651;49.138;8.900;2023-04-19T14:02:27;16.50;99.90
19037;DHT22;9651;49.138;8.900;2023-04-19T14:06:29;16.40;99.90
19037;DHT22;9651;49.138;8.900;2023-04-19T14:10:33;16.40;99.90
19037;DHT22;9651;49.138;8.900;2023-04-19T14:14:35;16.50;99.90
19037;DHT22;9651;49.138;8.900;2023-04-19T14:18:36;16.50;99.90
19037;DHT22;9651;49.138;8.900;2023-04-19T14:22:38;16.20;99.90
19037;DHT22;9651;49.138;8.900;2023-04-19T14:26:42;16.10;99.90
19037;DHT22;9651;49.138;8.900;2023-04-19T14:30:43;16.20;99.90
19037;DHT22;9651;49.138;8.900;2023-04-19T14:34:45;16.30;99.90
19037;DHT22;9651;49.138;8.900;2023-04-19T14:38:47;16.50;99.90
19037;DHT22;9651;49.138;8.900;2023-04-19T14:42:50;16.90;99.90
19037;DHT22;9651;49.138;8.900;2023-04-19T14:46:52;17.20;99.90
19037;DHT22;9651;49.138;8.900;2023-04-19T14:50:54;17.00;99.90
19037;DHT22;9651;49.138;8.900;2023-04-19T14:54:56;16.50;99.90
19037;DHT22;9651;49.138;8.900;2023-04-19T14:59:00;16.20;99.90
19037;DHT22;9651;49.138;8.900;2023-04-19T15:03:02;16.10;99.90
19037;DHT22;9651;49.138;8.900;2023-04-19T15:07:04;16.20;99.90
19037;DHT22;9651;49.138;8.900;2023-04-19T15:11:06;16.20;99.90
19037;DHT22;9651;49.138;8.900;2023-04-19T15:15:10;16.00;99.90
19037;DHT22;9651;49.138;8.900;2023-04-19T15:19:12;15.80;99.90
19037;DHT22;9651;49.138;8.900;2023-04-19T15:23:14;15.60;99.90
19037;DHT22;9651;49.138;8.900;2023-04-19T15:27:16;15.50;99.90
19037;DHT22;9651;49.138;8.900;2023-04-19T15:31:19;15.50;99.90
19037;DHT22;9651;49.138;8.900;2023-04-19T15:35:21;15.20;99.90
19037;DHT22;9651;49.138;8.900;2023-04-19T15:39:23;15.20;99.90
19037;DHT22;9651;49.138;8.900;2023-04-19T15:43:25;15.10;99.90
19037;DHT22;9651;49.138;8.900;2023-04-19T15:47:28;14.90;99.90
19037;DHT22;9651;49.138;8.900;2023-04-19T15:51:30;14.90;99.90
19037;DHT22;9651;49.138;8.900;2023-04-19T15:55:32;14.70;99.90
19037;DHT22;9651;49.138;8.900;2023-04-19T15:59:34;14.70;99.90
19037;DHT22;9651;49.138;8.900;2023-04-19T16:03:37;14.70;99.50
19037;DHT22;9651;49.138;8.900;2023-04-19T16:07:41;14.70;99.40
19037;DHT22;9651;49.138;8.900;2023-04-19T16:11:43;14.70;99.40
19037;DHT22;9651;49.138;8.900;2023-04-19T16:15:44;14.70;99.40
19037;DHT22;9651;49.138;8.900;2023-04-19T16:19:48;14.50;96.50
19037;DHT22;9651;49.138;8.900;2023-04-19T16:23:49;14.30;97.10
19037;DHT22;9651;49.138;8.900;2023-04-19T16:27:51;14.20;96.30
19037;DHT22;9651;49.138;8.900;2023-04-19T16:31:53;14.10;95.90
19037;DHT22;9651;49.138;8.900;2023-04-19T16:35:56;14.10;95.80
19037;DHT22;9651;49.138;8.900;2023-04-19T16:39:58;14.20;94.70
19037;DHT22;9651;49.138;8.900;2023-04-19T16:44:00;14.20;94.20
19037;DHT22;9651;49.138;8.900;2023-04-19T16:48:02;14.10;94.20
19037;DHT22;9651;49.138;8.900;2023-04-19T16:52:06;14.10;94.20
19037;DHT22;9651;49.138;8.900;2023-04-19T16:56:07;14.10;94.30
19037;DHT22;9651;49.138;8.900;2023-04-19T17:00:10;13.90;94.60
19037;DHT22;9651;49.138;8.900;2023-04-19T17:04:15;13.70;94.70
19037;DHT22;9651;49.138;8.900;2023-04-19T17:08:18;13.60;94.60
19037;DHT22;9651;49.138;8.900;2023-04-19T17:12:21;13.50;94.40
19037;DHT22;9651;49.138;8.900;2023-04-19T17:16:23;13.30;94.50
19037;DHT22;9651;49.138;8.900;2023-04-19T17:20:25;13.20;94.60
19037;DHT22;9651;49.138;8.900;2023-04-19T17:24:28;13.10;95.30
19037;DHT22;9651;49.138;8.900;2023-04-19T17:28:30;13.00;96.00
19037;DHT22;9651;49.138;8.900;2023-04-19T17:32:32;13.00;94.90
19037;DHT22;9651;49.138;8.900;2023-04-19T17:36:34;12.80;95.50
19037;DHT22;9651;49.138;8.900;2023-04-19T17:40:38;12.80;95.50
19037;DHT22;9651;49.138;8.900;2023-04-19T17:44:39;12.70;95.60
19037;DHT22;9651;49.138;8.900;2023-04-19T17:48:41;12.60;95.60
19037;DHT22;9651;49.138;8.900;2023-04-19T17:52:43;12.40;95.90
19037;DHT22;9651;49.138;8.900;2023-04-19T17:56:47;12.30;96.20
19037;DHT22;9651;49.138;8.900;2023-04-19T18:00:49;12.30;97.00
19037;DHT22;9651;49.138;8.900;2023-04-19T18:04:50;12.20;97.30
19037;DHT22;9651;49.138;8.900;2023-04-19T18:08:52;12.10;97.50
19037;DHT22;9651;49.138;8.900;2023-04-19T18:12:56;12.00;98.00
19037;DHT22;9651;49.138;8.900;2023-04-19T18:16:57;11.80;98.00
19037;DHT22;9651;49.138;8.900;2023-04-19T18:21:03;11.70;98.20
19037;DHT22;9651;49.138;8.900;2023-04-19T18:25:06;11.60;98.60
19037;DHT22;9651;49.138;8.900;2023-04-19T18:29:09;11.50;98.70
19037;DHT22;9651;49.138;8.900;2023-04-19T18:33:11;11.30;99.20
19037;DHT22;9651;49.138;8.900;2023-04-19T18:37:14;11.30;99.50
19037;DHT22;9651;49.138;8.900;2023-04-19T18:41:16;11.20;99.90
19037;DHT22;9651;49.138;8.900;2023-04-19T18:45:20;11.00;99.90
19037;DHT22;9651;49.138;8.900;2023-04-19T18:49:21;10.90;99.90
19037;DHT22;9651;49.138;8.900;2023-04-19T18:53:25;10.80;99.90
19037;DHT22;9651;49.138;8.900;2023-04-19T18:57:28;10.80;99.90
19037;DHT22;9651;49.138;8.900;2023-04-19T19:01:31;10.70;99.90
19037;DHT22;9651;49.138;8.900;2023-04-19T19:05:33;10.60;99.90
19037;DHT22;9651;49.138;8.900;2023-04-19T19:09:35;10.50;99.90
19037;DHT22;9651;49.138;8.900;2023-04-19T19:13:36;10.40;99.90
19037;DHT22;9651;49.138;8.900;2023-04-19T19:17:41;10.30;99.90
19037;DHT22;9651;49.138;8.900;2023-04-19T19:21:44;10.20;99.90
19037;DHT22;9651;49.138;8.900;2023-04-19T19:25:48;10.10;99.90
19037;DHT22;9651;49.138;8.900;2023-04-19T19:29:50;10.10;99.90
19037;DHT22;9651;49.138;8.900;2023-04-19T19:33:53;10.00;99.90
19037;DHT22;9651;49.138;8.900;2023-04-19T19:37:55;10.00;99.90
19037;DHT22;9651;49.138;8.900;2023-04-19T19:41:57;9.90;99.90
19037;DHT22;9651;49.138;8.900;2023-04-19T19:45:59;9.80;99.90
19037;DHT22;9651;49.138;8.900;2023-04-19T19:50:04;9.80;99.90
19037;DHT22;9651;49.138;8.900;2023-04-19T19:54:06;9.70;99.90
19037;DHT22;9651;49.138;8.900;2023-04-19T19:58:08;9.60;99.90
19037;DHT22;9651;49.138;8.900;2023-04-19T20:02:10;9.40;99.90
19037;DHT22;9651;49.138;8.900;2023-04-19T20:06:13;9.30;99.90
19037;DHT22;9651;49.138;8.900;2023-04-19T20:10:15;9.10;99.90
19037;DHT22;9651;49.138;8.900;2023-04-19T20:14:21;8.80;99.90
19037;DHT22;9651;49.138;8.900;2023-04-19T20:18:24;8.60;99.90
19037;DHT22;9651;49.138;8.900;2023-04-19T20:22:27;8.40;99.90
19037;DHT22;9651;49.138;8.900;2023-04-19T20:26:29;8.30;99.90
19037;DHT22;9651;49.138;8.900;2023-04-19T20:30:31;8.20;99.90
19037;DHT22;9651;49.138;8.900;2023-04-19T20:34:33;8.20;99.90
19037;DHT22;9651;49.138;8.900;2023-04-19T20:38:37;8.20;99.90
19037;DHT22;9651;49.138;8.900;2023-04-19T20:42:39;8.00;99.90
19037;DHT22;9651;49.138;8.900;2023-04-19T20:46:41;7.90;99.90
19037;DHT22;9651;49.138;8.900;2023-04-19T20:50:43;7.90;99.90
19037;DHT22;9651;49.138;8.900;2023-04-19T20:54:46;7.80;99.90
19037;DHT22;9651;49.138;8.900;2023-04-19T20:58:48;7.80;99.90
19037;DHT22;9651;49.138;8.900;2023-04-19T21:02:50;7.70;99.90
19037;DHT22;9651;49.138;8.900;2023-04-19T21:06:53;7.60;99.90
19037;DHT22;9651;49.138;8.900;2023-04-19T21:10:56;7.50;99.90
19037;DHT22;9651;49.138;8.900;2023-04-19T21:14:58;7.40;99.90
19037;DHT22;9651;49.138;8.900;2023-04-19T21:19:00;7.30;99.90
19037;DHT22;9651;49.138;8.900;2023-04-19T21:23:01;7.30;99.90
19037;DHT22;9651;49.138;8.900;2023-04-19T21:27:05;7.10;99.90
19037;DHT22;9651;49.138;8.900;2023-04-19T21:31:07;7.00;99.90
19037;DHT22;9651;49.138;8.900;2023-04-19T21:35:09;7.00;99.90
19037;DHT22;9651;49.138;8.900;2023-04-19T21:39:11;6.90;99.90
19037;DHT22;9651;49.138;8.900;2023-04-19T21:43:15;6.90;99.90
19037;DHT22;9651;49.138;8.900;2023-04-19T21:47:17;6.90;99.90
19037;DHT22;9651;49.138;8.900;2023-04-19T21:51:19;6.80;99.90
19037;DHT22;9651;49.138;8.900;2023-04-19T21:55:21;6.80;99.90
19037;DHT22;9651;49.138;8.900;2023-04-19T21:59:24;6.70;99.90
19037;DHT22;9651;49.138;8.900;2023-04-19T22:03:26;6.80;99.90
19037;DHT22;9651;49.138;8.900;2023-04-19T22:07:28;6.80;99.90
19037;DHT22;9651;49.138;8.900;2023-04-19T22:11:31;6.70;99.90
19037;DHT22;9651;49.138;8.900;2023-04-19T22:15:34;6.70;99.90
19037;DHT22;9651;49.138;8.900;2023-04-19T22:19:37;6.60;99.90
19037;DHT22;9651;49.138;8.900;2023-04-19T22:23:38;6.50;99.90
19037;DHT22;9651;49.138;8.900;2023-04-19T22:27:40;6.40;99.90
19037;DHT22;9651;49.138;8.900;2023-04-19T22:31:44;6.20;99.90
19037;DHT22;9651;49.138;8.900;2023-04-19T22:35:46;6.00;99.90
19037;DHT22;9651;49.138;8.900;2023-04-19T22:39:47;5.90;99.90
19037;DHT22;9651;49.138;8.900;2023-04-19T22:43:49;5.90;99.90
19037;DHT22;9651;49.138;8.900;2023-04-19T22:47:52;5.90;99.90
19037;DHT22;9651;49.138;8.900;2023-04-19T22:51:54;5.70;99.90
19037;DHT22;9651;49.138;8.900;2023-04-19T22:55:57;5.60;99.90
19037;DHT22;9651;49.138;8.900;2023-04-19T22:59:59;5.40;99.90
19037;DHT22;9651;49.138;8.900;2023-04-19T23:04:03;5.30;99.90
19037;DHT22;9651;49.138;8.900;2023-04-19T23:08:04;5.20;99.90
19037;DHT22;9651;49.138;8.900;2023-04-19T23:12:08;5.20;99.90
19037;DHT22;9651;49.138;8.900;2023-04-19T23:16:10;5.20;99.90
19037;DHT22;9651;49.138;8.900;2023-04-19T23:20:13;5.10;99.90
19037;DHT22;9651;49.138;8.900;2023-04-19T23:24:16;5.10;99.90
19037;DHT22;9651;49.138;8.900;2023-04-19T23:28:18;5.00;99.90
19037;DHT22;9651;49.138;8.900;2023-04-19T23:32:20;4.90;99.90
19037;DHT22;9651;49.138;8.900;2023-04-19T23:36:23;4.90;99.90
19037;DHT22;9651;49.138;8.900;2023-04-19T23:40:25;4.90;99.90
19037;DHT22;9651;49.138;8.900;2023-04-19T23:44:28;4.90;99.90
19037;DHT22;9651;49.138;8.900;2023-04-19T23:48:30;4.90;99.90
19037;DHT22;9651;49.138;8.900;2023-04-19T23:52:33;4.80;99.90
19037;DHT22;9651;49.138;8.900;2023-04-19T23:56:35;4.60;99.90
